AirNav   Pilot Hours Calculator
 
 364 users online  

10MT Hoolie Airport
Haxby, Montana, USA


FAA INFORMATION EFFECTIVE 26 MARCH 2020

Location

FAA Identifier: 10MT
Lat/Long: 47-50-00.0420N 106-29-02.1440W
47-50.000700N 106-29.035733W
47.8333450,-106.4839289
(estimated)
Elevation: 2526 ft. / 769.9 m (surveyed)
Variation: 14E (1985)
From city: 4 miles NW of HAXBY, MT
Time zone: UTC -6 (UTC -7 during Standard Time)
Zip code: 59337

Airport Operations

Airport use: CLOSED INDEFINITELY
Activation date: 10/1953
Control tower: no
ARTCC: SALT LAKE CITY CENTER
FSS: GREAT FALLS FLIGHT SERVICE STATION
Attendance: UNATNDD
Wind indicator: no
Segmented circle: no

Nearby radio navigation aids

VOR radial/distance  VOR name  Freq  Var
GGWr152/23.6GLASGOW VOR/DME113.9014E

Airport Services

Airframe service: NONE
Powerplant service: NONE
Bottled oxygen: NONE
Bulk oxygen: NONE

Runway Information

Runway N/S

Dimensions: 2000 x 60 ft. / 610 x 18 m
Surface: turf
RUNWAY N  RUNWAY S
Traffic pattern: leftleft
Runway end identifier lights: nono

Runway NW/SE

Dimensions: 1600 x 60 ft. / 488 x 18 m
Surface: turf
RUNWAY NW  RUNWAY SE
Traffic pattern: leftleft
Runway end identifier lights: nono

Runway E/W

Dimensions: 1500 x 60 ft. / 457 x 18 m
Surface: turf
RUNWAY E  RUNWAY W
Traffic pattern: leftleft
Runway end identifier lights: nono

Airport Ownership and Management from official FAA records

Ownership: Privately-owned
Owner: HOOLIE EDWARDS
JORDAN, MT 59337
Phone 406-557-2578
Manager: HOOLIE EDWARDS
JORDAN, MT 59337
Phone 406-557-2578

Additional Remarks

FOR CD CTC SALT LAKE ARTCC AT 801-320-2568.
(ARPT STATUS) ARPT CLSD INDEFLY.

Instrument Procedures

There are no published instrument procedures at 10MT.

Some nearby airports with instrument procedures:

KGGW - Wokal Field/Glasgow-Valley County Airport (23 nm N)
KOLF - L M Clayton Airport (40 nm NE)
4U6 - Circle Town County Airport (45 nm SE)
PO1 - Poplar Municipal Airport (56 nm E)
M75 - Malta Airport (66 nm NW)
 
Loc | Ops | Rwys | IFR | FBO | Links
Com | Nav | Svcs | Stats | Notes
Area around 10MT (Hoolie Airport)
 
Road maps at: MapQuest Bing Google
 
Aerial photo
No photo
 
Sectional chart

 
Airport distance calculator
Flying to Hoolie Airport? Find the distance to fly.

From to 10MT

Sunrise and sunset
Times for 06-Apr-2020
 Local
(UTC-6)
 Zulu
(UTC)
Morning civil twilight06:0112:01
Sunrise06:3312:33
Sunset19:4301:43
Evening civil twilight20:1502:15

Current date and time
Zulu (UTC)  06-Apr-2020 06:22:15
Local (UTC-6)  06-Apr-2020 00:22:15
 
METAR
KGGW 
24nm N 
060553Z AUTO 10016KT 10SM CLR 02/M02 A2969 RMK AO2 SLP071 T00221022 10106 20022 50001
KJDN 
35nm SW 
060548Z AUTO 09007KT 06/M01 A2967 RMK AO1 SLP057 T00561011 10167 20050 50000
KOLF 
40nm NE 
060553Z AUTO 07009KT 7SM CLR 01/M02 A2975 RMK AO2 SLP091 T00061017 10122 20006 51004
TAF
KGGW 
24nm N 
060520Z 0606/0706 10011KT P6SM SCT080 FM061300 10011G19KT P6SM BKN070 FM061600 13011KT P6SM BKN080 FM062100 29013G22KT P6SM SCT080
NOTAMs
Click for the latest NOTAMs
NOTAMs are issued by the DoD/FAA and will open in a separate window not controlled by AirNav.

 

 
 

Would you like to see your business listed on this page?

 If your business provides an interesting product or service to pilots, flight crews, aircraft, or users of the Hoolie Airport, you should consider listing it here.  To start the listing process, click on the button below
 
Add a business
 

Other Pages about Hoolie Airport

Update a link
 
Copyright © AirNav, LLC. All rights reserved. Privacy Policy  Contact